createdAt,value
2022-12-23T00:01:47.199Z,90.65
2022-12-23T00:04:15.868Z,90.63
2022-12-23T00:06:45.494Z,90.20
2022-12-23T00:09:11.978Z,89.98
2022-12-23T00:11:38.615Z,89.85
2022-12-23T00:14:05.246Z,90.29
2022-12-23T00:16:31.837Z,89.94
2022-12-23T00:18:58.527Z,90.45
2022-12-23T00:21:25.017Z,89.75
2022-12-23T00:23:51.745Z,89.80
2022-12-23T00:26:21.977Z,90.38
2022-12-23T00:28:48.658Z,90.32
2022-12-23T00:31:16.141Z,90.02
2022-12-23T00:33:44.630Z,89.39
2022-12-23T00:36:39.552Z,88.93
2022-12-23T00:39:06.231Z,88.44
2022-12-23T00:41:32.730Z,88.15
2022-12-23T00:44:00.711Z,86.98
2022-12-23T00:46:27.738Z,86.69
2022-12-23T00:48:54.227Z,85.67
2022-12-23T00:51:20.707Z,85.10
2022-12-23T00:53:47.179Z,86.10
2022-12-23T00:56:13.665Z,86.12
2022-12-23T00:58:40.127Z,86.78
2022-12-23T01:01:06.760Z,87.21
2022-12-23T01:03:33.341Z,87.31
2022-12-23T01:06:00.987Z,87.66
2022-12-23T01:08:27.590Z,87.41
2022-12-23T01:10:54.145Z,86.82
2022-12-23T01:13:21.078Z,87.28
2022-12-23T01:15:47.648Z,87.25
2022-12-23T01:18:14.248Z,87.12
2022-12-23T01:20:42.921Z,88.32
2022-12-23T01:23:09.445Z,87.70
2022-12-23T01:25:36.148Z,87.58
2022-12-23T01:28:02.650Z,86.75
2022-12-23T01:30:29.126Z,87.00
2022-12-23T01:32:55.616Z,87.74
2022-12-23T01:35:22.134Z,88.28
2022-12-23T01:37:48.627Z,88.16
2022-12-23T01:40:15.110Z,89.41
2022-12-23T01:42:41.733Z,88.44
2022-12-23T01:45:22.002Z,89.67
2022-12-23T01:48:08.629Z,88.84
2022-12-23T01:50:41.190Z,88.52
2022-12-23T01:53:11.562Z,88.88
2022-12-23T01:55:43.253Z,87.72
2022-12-23T01:58:30.775Z,87.03
2022-12-23T02:00:58.104Z,87.93
2022-12-23T02:03:24.734Z,87.61
2022-12-23T02:05:51.633Z,87.44
2022-12-23T02:08:18.594Z,87.50
2022-12-23T02:11:00.206Z,87.07
2022-12-23T02:13:37.013Z,86.17
2022-12-23T02:16:10.937Z,87.49
2022-12-23T02:19:01.768Z,87.90
2022-12-23T02:21:31.263Z,90.34
2022-12-23T02:24:47.369Z,90.51
2022-12-23T02:27:19.856Z,92.07
2022-12-23T02:29:49.340Z,92.20
2022-12-23T02:32:34.782Z,92.46
2022-12-23T02:35:25.977Z,93.75
2022-12-23T02:38:08.861Z,92.00
2022-12-23T02:40:56.010Z,91.29
2022-12-23T02:43:32.609Z,90.89
2022-12-23T02:46:09.397Z,91.53
2022-12-23T02:49:08.645Z,90.14
2022-12-23T02:51:39.144Z,89.98
2022-12-23T02:54:08.588Z,89.71
2022-12-23T02:56:37.262Z,89.78
2022-12-23T02:59:12.084Z,89.13
2022-12-23T03:01:39.059Z,89.13
2022-12-23T03:04:06.846Z,89.61
2022-12-23T03:06:37.257Z,89.56
2022-12-23T03:09:03.900Z,88.72
2022-12-23T03:12:01.708Z,87.83
2022-12-23T03:14:40.274Z,88.04
2022-12-23T03:17:16.325Z,88.06
2022-12-23T03:19:54.371Z,88.28
2022-12-23T03:22:27.276Z,86.83
2022-12-23T03:25:17.572Z,86.84
2022-12-23T03:27:52.965Z,85.92
2022-12-23T03:30:20.662Z,86.29
2022-12-23T03:32:52.515Z,85.73
2022-12-23T03:35:23.474Z,85.35
2022-12-23T03:37:52.850Z,84.62
2022-12-23T03:40:28.815Z,84.44
2022-12-23T03:43:04.392Z,84.95
2022-12-23T03:45:39.412Z,85.43
2022-12-23T03:48:19.939Z,85.02
2022-12-23T03:50:48.414Z,84.42
2022-12-23T03:53:20.153Z,84.07
2022-12-23T03:55:56.712Z,84.51
2022-12-23T03:58:43.675Z,84.42
2022-12-23T04:01:10.316Z,83.70
2022-12-23T04:03:43.130Z,83.69
2022-12-23T04:06:11.575Z,83.66
2022-12-23T04:08:38.820Z,83.43
2022-12-23T04:11:05.982Z,83.29
2022-12-23T04:13:53.957Z,82.94
2022-12-23T04:16:25.837Z,83.69
2022-12-23T04:18:53.337Z,83.29
2022-12-23T04:21:26.090Z,83.42
2022-12-23T04:23:52.567Z,83.57
2022-12-23T04:26:19.181Z,85.37
2022-12-23T04:28:45.644Z,85.85
2022-12-23T04:31:12.213Z,85.73
2022-12-23T04:33:38.777Z,85.37
2022-12-23T04:36:05.663Z,85.02
2022-12-23T04:38:32.273Z,84.19
2022-12-23T04:40:58.732Z,83.40
2022-12-23T04:43:25.327Z,83.09
2022-12-23T04:45:51.848Z,82.59
2022-12-23T04:48:18.915Z,83.64
2022-12-23T04:50:45.448Z,83.86
2022-12-23T04:53:11.913Z,84.46
2022-12-23T04:55:38.451Z,86.87
2022-12-23T04:58:04.945Z,86.90
2022-12-23T05:00:37.179Z,85.96
2022-12-23T05:03:05.934Z,86.22
2022-12-23T05:05:32.527Z,85.97
2022-12-23T05:08:04.167Z,85.92
2022-12-23T05:10:30.965Z,85.80
2022-12-23T05:12:58.500Z,85.20
2022-12-23T05:15:25.064Z,86.62
2022-12-23T05:17:51.580Z,87.07
2022-12-23T05:20:18.059Z,86.34
2022-12-23T05:22:44.593Z,86.08
2022-12-23T05:25:11.045Z,86.43
2022-12-23T05:27:37.581Z,85.96
2022-12-23T05:30:04.507Z,86.72
2022-12-23T05:32:30.964Z,86.75
2022-12-23T05:34:57.434Z,86.41
2022-12-23T05:37:23.948Z,85.62
2022-12-23T05:39:50.628Z,85.32
2022-12-23T05:42:17.097Z,85.52
2022-12-23T05:44:43.581Z,85.73
2022-12-23T05:47:10.087Z,85.13
2022-12-23T05:49:36.638Z,85.40
2022-12-23T05:52:03.121Z,86.25
2022-12-23T05:54:29.714Z,86.37
2022-12-23T05:56:56.244Z,86.16
2022-12-23T05:59:26.433Z,86.23
2022-12-23T06:01:55.903Z,86.51
2022-12-23T06:04:22.561Z,86.89
2022-12-23T06:06:49.060Z,87.03
2022-12-23T06:09:15.574Z,86.96
2022-12-23T06:11:42.082Z,86.02
2022-12-23T06:14:08.619Z,85.77
2022-12-23T06:16:35.208Z,85.75
2022-12-23T06:19:02.589Z,85.39
2022-12-23T06:21:29.078Z,84.90
2022-12-23T06:23:55.567Z,84.87
2022-12-23T06:26:22.350Z,84.77
2022-12-23T06:28:48.861Z,84.28
2022-12-23T06:31:15.460Z,84.07
2022-12-23T06:33:42.140Z,84.72
2022-12-23T06:36:08.937Z,85.44
2022-12-23T06:38:35.428Z,86.01
2022-12-23T06:41:01.921Z,86.59
2022-12-23T06:43:28.414Z,86.84
2022-12-23T06:45:54.877Z,85.91
2022-12-23T06:48:21.425Z,85.88
2022-12-23T06:50:47.885Z,84.97
2022-12-23T06:53:14.376Z,85.76
2022-12-23T06:55:40.845Z,85.70
2022-12-23T06:58:07.510Z,84.77
2022-12-23T07:00:34.066Z,84.77
2022-12-23T07:03:00.826Z,84.44
2022-12-23T07:05:31.903Z,84.40
2022-12-23T07:08:03.184Z,84.33
2022-12-23T07:10:29.860Z,84.05
2022-12-23T07:12:56.486Z,83.90
2022-12-23T07:15:22.963Z,84.85
2022-12-23T07:17:49.536Z,85.51
2022-12-23T07:20:16.038Z,85.17
2022-12-23T07:22:42.629Z,85.05
2022-12-23T07:25:09.376Z,84.65
2022-12-23T07:27:35.869Z,84.71
2022-12-23T07:30:02.469Z,83.67
2022-12-23T07:32:29.195Z,83.67
2022-12-23T07:34:55.694Z,83.12
2022-12-23T07:37:22.160Z,83.46
2022-12-23T07:39:48.637Z,83.98
2022-12-23T07:45:01.706Z,84.39
2022-12-23T07:47:28.547Z,83.71
2022-12-23T07:49:54.991Z,83.29
2022-12-23T07:52:21.442Z,83.73
2022-12-23T07:54:47.892Z,83.52
2022-12-23T07:57:15.543Z,83.71
2022-12-23T07:59:42.013Z,82.89
2022-12-23T08:02:10.825Z,82.41
2022-12-23T08:04:42.562Z,83.94
2022-12-23T08:07:12.224Z,85.13
2022-12-23T08:09:38.665Z,90.05
2022-12-23T08:12:05.320Z,91.68
2022-12-23T08:14:31.819Z,91.57
2022-12-23T08:16:58.336Z,92.70
2022-12-23T08:19:24.845Z,92.05
2022-12-23T08:21:51.421Z,91.91
2022-12-23T08:24:18.665Z,92.56
2022-12-23T08:26:48.697Z,93.89
2022-12-23T08:29:15.275Z,94.12
2022-12-23T08:31:41.741Z,94.48
2022-12-23T08:34:08.668Z,94.34
2022-12-23T08:36:35.835Z,94.79
2022-12-23T08:39:05.883Z,94.73
2022-12-23T08:41:36.378Z,94.16
2022-12-23T08:44:03.867Z,93.39
2022-12-23T08:46:32.498Z,96.49
2022-12-23T08:49:00.292Z,94.95
2022-12-23T08:51:27.810Z,93.57
2022-12-23T08:54:00.085Z,92.52
2022-12-23T08:56:32.315Z,92.32
2022-12-23T08:58:59.826Z,91.27
2022-12-23T09:01:28.834Z,88.86
2022-12-23T09:03:55.738Z,88.64
2022-12-23T09:06:34.507Z,87.22
2022-12-23T09:09:01.010Z,87.38
2022-12-23T09:11:28.843Z,87.32
2022-12-23T09:13:56.420Z,87.83
2022-12-23T09:16:23.353Z,87.52
2022-12-23T09:18:49.930Z,87.27
2022-12-23T09:21:19.671Z,86.94
2022-12-23T09:23:46.253Z,85.99
2022-12-23T09:26:19.203Z,85.96
2022-12-23T09:28:45.700Z,84.95
2022-12-23T09:31:13.228Z,84.39
2022-12-23T09:33:40.083Z,84.49
2022-12-23T09:36:06.904Z,85.54
2022-12-23T09:38:33.955Z,86.86
2022-12-23T09:41:09.547Z,86.54
2022-12-23T09:44:07.012Z,87.51
2022-12-23T09:46:38.622Z,88.82
2022-12-23T09:49:12.979Z,89.09
2022-12-23T09:51:42.751Z,88.89
2022-12-23T09:54:23.572Z,87.42
2022-12-23T09:57:15.098Z,86.75
2022-12-23T10:00:07.936Z,85.94
2022-12-23T10:02:53.683Z,85.23
2022-12-23T10:05:41.931Z,85.66
2022-12-23T10:08:26.551Z,85.96
2022-12-23T10:11:09.928Z,86.60
2022-12-23T10:13:42.481Z,85.90
2022-12-23T10:16:18.490Z,85.58
2022-12-23T10:18:50.404Z,85.38
2022-12-23T10:21:24.962Z,84.71
2022-12-23T10:23:53.742Z,84.43
2022-12-23T10:26:24.129Z,83.57
2022-12-23T10:28:55.920Z,84.79
2022-12-23T10:31:41.876Z,84.69
2022-12-23T10:34:21.121Z,84.26
2022-12-23T10:36:54.659Z,82.96
2022-12-23T10:39:37.264Z,82.55
2022-12-23T10:42:13.766Z,82.81
2022-12-23T10:45:04.593Z,83.40
2022-12-23T10:48:13.941Z,84.26
2022-12-23T10:51:14.977Z,84.46
2022-12-23T10:53:46.668Z,85.96
2022-12-23T10:56:13.674Z,86.09
2022-12-23T10:58:46.075Z,85.89
2022-12-23T11:01:24.141Z,85.73
2022-12-23T11:04:05.840Z,85.29
2022-12-23T11:06:37.530Z,84.95
2022-12-23T11:09:05.432Z,84.43
2022-12-23T11:12:08.754Z,82.59
2022-12-23T11:14:38.777Z,83.85
2022-12-23T11:17:09.466Z,83.04
2022-12-23T11:19:35.956Z,83.15
2022-12-23T11:22:03.095Z,84.64
2022-12-23T11:24:30.570Z,84.15
2022-12-23T11:27:05.183Z,84.02
2022-12-23T11:29:35.161Z,85.03
2022-12-23T11:32:18.547Z,86.13
2022-12-23T11:34:46.918Z,87.31
2022-12-23T11:37:43.616Z,88.60
2022-12-23T11:40:31.856Z,90.32
2022-12-23T11:43:01.684Z,92.62
2022-12-23T11:45:31.105Z,92.97
2022-12-23T11:47:57.602Z,94.08
2022-12-23T11:50:40.647Z,94.66
2022-12-23T11:53:20.657Z,95.54
2022-12-23T11:56:04.919Z,96.39
2022-12-23T11:58:36.756Z,97.20
2022-12-23T12:01:08.358Z,97.37
2022-12-23T12:04:04.019Z,97.35
2022-12-23T12:06:31.440Z,97.62
2022-12-23T12:09:02.040Z,96.90
2022-12-23T12:11:35.493Z,97.11
2022-12-23T12:14:06.631Z,96.61
2022-12-23T12:16:40.415Z,97.55
2022-12-23T12:19:15.705Z,97.56
2022-12-23T12:22:12.517Z,98.10
2022-12-23T12:25:15.372Z,98.36
2022-12-23T12:27:49.769Z,98.17
2022-12-23T12:30:19.364Z,98.49
2022-12-23T12:32:57.421Z,97.76
2022-12-23T12:35:42.811Z,96.34
2022-12-23T12:38:28.046Z,95.91
2022-12-23T12:41:08.417Z,94.48
2022-12-23T12:43:38.201Z,94.09
2022-12-23T12:46:23.640Z,93.61
2022-12-23T12:48:57.697Z,92.73
2022-12-23T12:51:42.466Z,92.03
2022-12-23T12:54:21.204Z,92.01
2022-12-23T12:56:53.324Z,94.15
2022-12-23T12:59:27.489Z,95.52
2022-12-23T13:02:09.290Z,93.49
2022-12-23T13:04:45.136Z,92.40
2022-12-23T13:07:32.316Z,91.07
2022-12-23T13:10:13.535Z,91.51
2022-12-23T13:13:04.436Z,89.13
2022-12-23T13:15:45.749Z,89.56
2022-12-23T13:18:49.577Z,89.67
2022-12-23T13:21:33.200Z,87.34
2022-12-23T13:24:04.395Z,88.08
2022-12-23T13:26:49.325Z,87.62
2022-12-23T13:29:30.042Z,86.62
2022-12-23T13:36:16.360Z,85.74
2022-12-23T13:39:01.610Z,85.36
2022-12-23T13:41:49.942Z,85.40
2022-12-23T13:44:16.745Z,85.58
2022-12-23T13:50:11.088Z,84.96
2022-12-23T13:53:16.638Z,85.75
2022-12-23T13:56:00.570Z,85.50
2022-12-23T14:02:01.904Z,84.30
2022-12-23T14:05:21.924Z,86.63
2022-12-23T14:12:05.890Z,85.21
2022-12-23T14:14:36.157Z,85.33
2022-12-23T14:17:09.001Z,86.35
2022-12-23T14:20:10.868Z,87.45
2022-12-23T14:23:11.899Z,87.59
2022-12-23T14:54:23.646Z,90.04
2022-12-23T14:57:08.250Z,89.90
2022-12-23T14:59:57.372Z,91.74
2022-12-23T15:02:35.763Z,92.89
2022-12-23T15:05:05.329Z,94.27
2022-12-23T15:11:46.026Z,93.93
2022-12-23T15:14:20.987Z,93.22
2022-12-23T15:16:47.760Z,92.24
2022-12-23T15:19:25.533Z,93.30
2022-12-23T15:25:00.907Z,92.08
2022-12-23T15:27:59.063Z,92.13
2022-12-23T15:30:31.172Z,91.11
2022-12-23T15:33:27.873Z,91.76
2022-12-23T15:35:54.271Z,91.48
2022-12-23T15:42:13.363Z,88.88
2022-12-23T15:44:39.852Z,88.64
2022-12-23T15:47:41.624Z,89.05
2022-12-23T15:53:53.782Z,91.99
2022-12-23T15:56:29.509Z,91.40
2022-12-23T15:59:24.053Z,91.92
2022-12-23T16:01:53.802Z,91.20
2022-12-23T16:04:27.384Z,91.01
2022-12-23T16:07:01.623Z,91.38
2022-12-23T16:10:04.045Z,91.64
2022-12-23T16:12:40.384Z,91.46
2022-12-23T16:15:41.969Z,90.78
2022-12-23T16:18:34.377Z,91.19
2022-12-23T16:21:34.947Z,91.14
2022-12-23T16:24:05.662Z,90.63
2022-12-23T16:26:32.230Z,91.40
2022-12-23T16:29:17.216Z,90.70
2022-12-23T16:34:59.089Z,89.98
2022-12-23T16:38:13.877Z,89.65
2022-12-23T16:41:00.031Z,90.10
2022-12-23T16:43:30.872Z,89.25
2022-12-23T17:27:22.936Z,90.75
2022-12-23T17:29:50.917Z,91.98
2022-12-23T17:32:18.305Z,92.83
2022-12-23T17:34:45.672Z,93.01
2022-12-23T17:37:43.355Z,93.11
2022-12-23T17:40:14.268Z,93.46
2022-12-23T17:42:47.093Z,93.37
2022-12-23T17:45:39.984Z,93.15
2022-12-23T17:48:06.837Z,92.65
2022-12-23T17:50:37.139Z,92.65
2022-12-23T17:53:06.821Z,94.25
2022-12-23T17:58:23.550Z,98.78
2022-12-23T18:00:53.073Z,99.98
2022-12-23T18:03:23.617Z,100.00
2022-12-23T18:05:54.239Z,100.00
2022-12-23T18:08:23.943Z,100.00
2022-12-23T18:10:50.504Z,100.00
2022-12-23T18:13:18.640Z,100.00
2022-12-23T18:15:45.480Z,100.00
2022-12-23T18:18:12.534Z,100.00
2022-12-23T18:20:40.842Z,99.43
2022-12-23T18:23:15.323Z,99.87
2022-12-23T18:25:42.049Z,97.57
2022-12-23T18:28:10.696Z,98.52
2022-12-23T18:30:37.496Z,97.68
2022-12-23T18:33:05.575Z,97.37
2022-12-23T18:35:39.252Z,98.37
2022-12-23T18:38:05.922Z,98.73
2022-12-23T18:40:33.195Z,99.16
2022-12-23T18:43:28.266Z,99.24
2022-12-23T18:46:14.977Z,97.30
2022-12-23T18:48:41.611Z,96.63
2022-12-23T18:51:12.875Z,95.20
2022-12-23T18:53:39.421Z,94.15
2022-12-23T18:56:13.051Z,93.86
2022-12-23T18:58:39.681Z,93.38
2022-12-23T19:01:06.300Z,92.91
2022-12-23T19:03:32.996Z,92.26
2022-12-23T19:05:59.759Z,92.16
2022-12-23T19:08:27.662Z,91.63
2022-12-23T19:10:55.535Z,92.86
2022-12-23T19:13:22.563Z,92.42
2022-12-23T19:15:49.299Z,92.47
2022-12-23T19:18:17.702Z,91.67
2022-12-23T19:20:47.303Z,92.88
2022-12-23T19:23:14.471Z,91.71
2022-12-23T19:25:52.639Z,90.13
2022-12-23T19:28:21.400Z,89.59
2022-12-23T19:30:48.083Z,88.57
2022-12-23T19:33:14.651Z,88.79
2022-12-23T19:35:42.126Z,88.33
2022-12-23T19:38:08.952Z,87.33
2022-12-23T19:40:35.491Z,87.84
2022-12-23T19:43:02.768Z,86.63
2022-12-23T19:45:29.529Z,86.43
2022-12-23T19:47:56.007Z,87.23
2022-12-23T19:50:22.850Z,86.59
2022-12-23T19:52:52.020Z,87.36
2022-12-23T19:55:20.740Z,87.81
2022-12-23T19:57:47.205Z,89.55
2022-12-23T20:00:14.176Z,88.81
2022-12-23T20:02:40.699Z,87.40
2022-12-23T20:05:08.690Z,86.78
2022-12-23T20:07:36.088Z,86.20
2022-12-23T20:10:04.409Z,86.88
2022-12-23T20:12:30.932Z,88.34
2022-12-23T20:14:59.191Z,88.04
2022-12-23T20:17:25.751Z,88.07
2022-12-23T20:19:52.286Z,88.58
2022-12-23T20:22:19.305Z,88.10
2022-12-23T20:24:46.196Z,88.54
2022-12-23T20:27:15.625Z,87.89
2022-12-23T20:29:42.597Z,87.37
2022-12-23T20:32:09.144Z,86.65
2022-12-23T20:34:39.465Z,86.05
2022-12-23T20:37:06.867Z,86.09
2022-12-23T20:39:33.351Z,84.76
2022-12-23T20:41:59.889Z,84.35
2022-12-23T20:44:35.655Z,84.23
2022-12-23T20:47:04.099Z,84.24
2022-12-23T20:49:31.045Z,84.16
2022-12-23T20:51:57.687Z,83.94
2022-12-23T20:54:31.640Z,83.92
2022-12-23T20:56:59.669Z,85.20
2022-12-23T20:59:26.191Z,84.25
2022-12-23T21:01:52.821Z,84.60
2022-12-23T21:04:19.432Z,85.46
2022-12-23T21:06:45.922Z,85.20
2022-12-23T21:09:14.306Z,84.33
2022-12-23T21:11:42.791Z,83.73
2022-12-23T21:14:09.446Z,84.49
2022-12-23T21:16:37.348Z,82.96
2022-12-23T21:19:05.823Z,83.60
2022-12-23T21:21:35.850Z,85.47
2022-12-23T21:24:03.379Z,86.40
2022-12-23T21:26:31.647Z,86.96
2022-12-23T21:29:00.179Z,86.12
2022-12-23T21:31:28.414Z,85.72
2022-12-23T21:33:55.437Z,86.71
2022-12-23T21:36:24.334Z,87.90
2022-12-23T21:38:51.158Z,87.42
2022-12-23T21:41:23.614Z,87.37
2022-12-23T21:43:50.660Z,87.49
2022-12-23T21:46:21.674Z,87.66
2022-12-23T21:48:48.800Z,88.99
2022-12-23T21:51:23.397Z,90.25
2022-12-23T21:53:54.533Z,91.43
2022-12-23T21:56:25.059Z,91.88
2022-12-23T21:58:56.440Z,92.33
2022-12-23T22:01:23.678Z,92.39
2022-12-23T22:03:51.178Z,91.11
2022-12-23T22:06:20.094Z,91.00
2022-12-23T22:08:47.096Z,91.86
2022-12-23T22:11:16.729Z,90.66
2022-12-23T22:13:44.030Z,89.72
2022-12-23T22:16:12.312Z,90.08
2022-12-23T22:18:39.463Z,91.37
2022-12-23T22:21:14.820Z,91.25
2022-12-23T22:23:41.925Z,92.36
2022-12-23T22:26:09.921Z,91.52
2022-12-23T22:28:37.257Z,91.74
2022-12-23T22:31:05.897Z,92.12
2022-12-23T22:33:32.990Z,92.65
2022-12-23T22:36:00.592Z,91.68
2022-12-23T22:38:27.257Z,91.31
2022-12-23T22:40:54.900Z,92.35
2022-12-23T22:43:21.583Z,92.37
2022-12-23T22:45:55.847Z,92.11
2022-12-23T22:48:22.943Z,92.97
2022-12-23T22:50:49.640Z,93.00
2022-12-23T22:53:16.266Z,93.42
2022-12-23T22:55:43.235Z,92.50
2022-12-23T22:58:09.752Z,92.24
2022-12-23T23:00:38.633Z,93.52
2022-12-23T23:03:05.215Z,94.11
2022-12-23T23:05:31.714Z,94.46
2022-12-23T23:07:58.195Z,94.40
2022-12-23T23:10:24.662Z,92.22
2022-12-23T23:12:51.186Z,92.56
2022-12-23T23:15:17.807Z,93.74
2022-12-23T23:17:49.937Z,94.63
2022-12-23T23:20:16.939Z,94.78
2022-12-23T23:22:43.599Z,93.99
2022-12-23T23:34:02.729Z,93.94
2022-12-23T23:36:29.329Z,94.24
2022-12-23T23:38:55.889Z,93.66
2022-12-23T23:41:23.793Z,93.73
2022-12-23T23:43:51.316Z,94.34
2022-12-23T23:46:18.015Z,94.98
2022-12-23T23:48:44.653Z,93.70
2022-12-23T23:51:11.164Z,92.44
2022-12-23T23:53:37.802Z,92.21
2022-12-23T23:56:06.548Z,91.89
2022-12-23T23:58:34.426Z,92.69
